Neshkoro, Wisconsin
Current Conditions -  °F | °C
As of 5:56 AM on Monday 22 Dec 2014 (Local Time) from KY50 Reporting Station
Haze Haze  
Wind Chill: -3°   Ceiling: 1200
Heat Index:   Visibility: 6mi
Dew Point:   Wind: 8mph
Humidity: 92%   Direction: 130°SE
Pressure: 29.88"   Gusts: NA
Location:  43.97°N, 89.22°W
Report Text: KY50 221156Z AUTO 13007KT 6SM BR OVC012 01/00 A2988 RMK AO2 TSNO 56010 60000 T00110000 10016 20011 UPB02E20 P0000 SLP124
Loading
Personal Weather Stations






























Interactive Weather Map New forecast layout! Learn more

10-Day Weather Forecast

Advertisements
Track Severe Weather on mobile